Time;durP1;ratioP1;P1;durP2;ratioP2;P2;SDS_P1;SDS_P2;PMS_P1;PMS_P2;Temp;Humidity;BMP_temperature;BMP_pressure;BME280_temperature;BME280_humidity;BME280_pressure;Samples;Min_cycle;Max_cycle;Signal;HPM_P1;HPM_P2
2023/08/20 00:01:58;;;;;;;10.63;3.55;;;25.60;89.90;;;;;;1904210;75;21107;-75
2023/08/20 00:04:52;;;;;;;8.78;3.30;;;25.60;89.80;;;;;;1904321;75;21107;-75
2023/08/20 00:07:44;;;;;;;7.35;3.27;;;25.60;89.90;;;;;;1904155;75;21090;-75
2023/08/20 00:10:35;;;;;;;6.65;3.22;;;25.60;90.00;;;;;;1918838;74;21190;-75
2023/08/20 00:13:28;;;;;;;9.55;3.75;;;25.60;90.20;;;;;;1925956;74;21666;-75
2023/08/20 00:16:20;;;;;;;10.45;3.58;;;25.60;90.30;;;;;;1926001;74;21104;-75
2023/08/20 00:19:13;;;;;;;9.35;3.75;;;25.70;90.40;;;;;;1925955;74;21065;-75
2023/08/20 00:22:05;;;;;;;12.60;4.28;;;25.70;90.50;;;;;;1926217;74;21210;-75
2023/08/20 00:24:57;;;;;;;7.40;3.70;;;25.70;90.60;;;;;;1926118;74;21165;-75
2023/08/20 00:27:49;;;;;;;9.35;3.55;;;25.60;90.80;;;;;;1926231;74;22102;-75
2023/08/20 00:30:40;;;;;;;8.08;3.40;;;25.60;90.80;;;;;;1926241;74;21578;-75
2023/08/20 00:33:32;;;;;;;7.30;3.37;;;25.70;90.80;;;;;;1926265;74;21098;-75
2023/08/20 00:36:23;;;;;;;8.05;3.40;;;25.80;90.80;;;;;;1926248;74;21137;-75
2023/08/20 00:39:15;;;;;;;9.58;3.85;;;25.90;90.90;;;;;;1926173;74;21191;-75
2023/08/20 00:42:07;;;;;;;9.18;3.77;;;25.90;91.00;;;;;;1926355;74;21149;-75
2023/08/20 00:44:58;;;;;;;8.55;3.40;;;25.90;91.20;;;;;;1926252;74;21122;-75
2023/08/20 00:47:50;;;;;;;9.60;3.95;;;25.90;91.40;;;;;;1926121;74;21181;-75
2023/08/20 00:50:42;;;;;;;11.00;3.80;;;25.90;91.50;;;;;;1926146;74;21641;-75
2023/08/20 00:53:33;;;;;;;10.13;4.28;;;25.90;91.60;;;;;;1926207;74;21081;-75
2023/08/20 00:56:25;;;;;;;9.53;3.70;;;25.90;91.80;;;;;;1925941;74;21205;-75
2023/08/20 00:59:16;;;;;;;7.22;3.10;;;25.90;92.00;;;;;;1926160;74;21144;-75
2023/08/20 01:02:08;;;;;;;7.97;3.22;;;25.80;92.30;;;;;;1926060;74;21138;-75
2023/08/20 01:04:59;;;;;;;13.85;3.60;;;25.60;92.80;;;;;;1926106;74;21133;-75
2023/08/20 01:08:07;;;;;;;8.25;3.72;;;25.50;92.70;;;;;;1926333;74;21104;-75
2023/08/20 01:10:59;;;;;;;;;;;25.40;92.90;;;;;;1929009;74;21170;-75
2023/08/20 01:13:50;;;;;;;6.75;3.50;;;25.40;92.90;;;;;;1926026;74;20161;-75
2023/08/20 01:16:44;;;;;;;10.38;3.80;;;25.30;93.20;;;;;;1926216;74;21164;-75
2023/08/20 01:19:35;;;;;;;7.53;3.70;;;25.40;93.40;;;;;;1926195;74;21162;-75
2023/08/20 01:22:39;;;;;;;10.10;4.00;;;25.40;93.70;;;;;;1926373;74;21057;-75
2023/08/20 01:25:39;;;;;;;6.62;3.30;;;25.30;94.30;;;;;;1926277;74;21084;-75
2023/08/20 01:28:32;;;;;;;8.40;3.65;;;25.00;95.80;;;;;;1926177;74;21096;-75
2023/08/20 01:31:28;;;;;;;8.98;4.03;;;24.70;97.10;;;;;;1926298;74;21065;-75
2023/08/20 01:34:20;;;;;;;7.87;3.65;;;24.60;97.70;;;;;;1926149;74;21109;-75
2023/08/20 01:37:11;;;;;;;6.17;3.87;;;24.70;98.50;;;;;;1926163;74;21107;-75
2023/08/20 01:40:03;;;;;;;7.58;3.12;;;24.60;99.30;;;;;;1926228;74;21093;-75
2023/08/20 01:42:54;;;;;;;8.30;4.10;;;24.60;99.90;;;;;;1925822;74;21170;-75
2023/08/20 01:45:47;;;;;;;9.23;4.30;;;24.60;99.90;;;;;;1926088;74;21093;-75
2023/08/20 01:48:38;;;;;;;8.25;4.08;;;24.60;99.90;;;;;;1926014;74;21158;-75
2023/08/20 01:51:30;;;;;;;6.62;3.67;;;24.70;99.90;;;;;;1926175;74;21109;-75
2023/08/20 01:54:22;;;;;;;6.83;3.52;;;24.80;99.90;;;;;;1926221;74;21057;-75
2023/08/20 01:57:13;;;;;;;7.87;3.95;;;24.90;99.90;;;;;;1926242;74;21104;-75
2023/08/20 02:00:06;;;;;;;8.55;3.60;;;24.90;99.90;;;;;;1926183;74;21592;-75
2023/08/20 02:03:03;;;;;;;8.70;4.03;;;24.80;99.90;;;;;;1926135;74;21045;-75
2023/08/20 02:05:55;;;;;;;6.12;3.40;;;24.80;99.90;;;;;;1926239;74;21182;-75
2023/08/20 02:08:47;;;;;;;10.63;3.80;;;24.80;99.90;;;;;;1926233;74;21086;-75
2023/08/20 02:11:39;;;;;;;8.78;3.35;;;24.80;99.90;;;;;;1922618;74;21183;-75
2023/08/20 02:14:34;;;;;;;7.62;3.90;;;24.90;99.70;;;;;;1913510;75;21085;-75
2023/08/20 02:17:24;;;;;;;7.28;3.35;;;24.90;99.60;;;;;;1913682;75;21142;-75
2023/08/20 02:20:15;;;;;;;9.25;3.08;;;25.00;99.40;;;;;;1913624;75;21142;-75
2023/08/20 02:23:07;;;;;;;7.03;3.27;;;24.90;99.00;;;;;;1913356;75;21182;-75
2023/08/20 02:25:58;;;;;;;8.90;3.40;;;24.90;99.10;;;;;;1913097;75;21106;-75
2023/08/20 02:28:51;;;;;;;9.45;3.47;;;24.90;99.00;;;;;;1913337;75;21214;-75
2023/08/20 02:31:43;;;;;;;9.38;3.40;;;25.00;99.10;;;;;;1913655;75;21191;-75
2023/08/20 02:34:34;;;;;;;7.30;3.35;;;24.90;99.00;;;;;;1913704;75;21104;-75
2023/08/20 02:37:25;;;;;;;8.10;3.40;;;25.00;99.00;;;;;;1913139;75;21073;-75
2023/08/20 02:40:17;;;;;;;6.92;3.15;;;24.90;99.10;;;;;;1913286;75;21493;-75
2023/08/20 02:43:08;;;;;;;6.62;3.40;;;24.90;99.40;;;;;;1913168;75;21073;-75
2023/08/20 02:46:00;;;;;;;7.55;3.52;;;24.90;99.70;;;;;;1913190;75;21112;-75
2023/08/20 02:48:51;;;;;;;8.85;3.55;;;24.90;99.90;;;;;;1913115;75;21134;-75
2023/08/20 02:51:45;;;;;;;8.78;3.50;;;24.90;99.90;;;;;;1913293;75;21173;-75
2023/08/20 02:54:36;;;;;;;7.60;3.55;;;24.90;99.90;;;;;;1913609;75;21156;-75
2023/08/20 02:57:28;;;;;;;6.85;3.75;;;24.90;99.90;;;;;;1913672;75;21058;-75
2023/08/20 03:00:19;;;;;;;8.35;3.92;;;24.90;99.90;;;;;;1913948;75;21069;-75
2023/08/20 03:03:11;;;;;;;8.43;3.65;;;24.90;99.90;;;;;;1913686;75;21112;-75
2023/08/20 03:06:03;;;;;;;8.83;3.70;;;24.90;99.90;;;;;;1913737;75;21081;-75
2023/08/20 03:08:54;;;;;;;6.75;4.10;;;24.90;99.90;;;;;;1913680;75;21518;-75
2023/08/20 03:11:45;;;;;;;8.90;3.60;;;24.90;99.90;;;;;;1913877;75;21175;-75
2023/08/20 03:14:37;;;;;;;6.95;3.77;;;24.90;99.90;;;;;;1913683;75;21097;-75
2023/08/20 03:17:28;;;;;;;7.95;3.70;;;24.90;99.90;;;;;;1913666;75;21566;-75
2023/08/20 03:20:19;;;;;;;6.80;3.60;;;24.80;99.90;;;;;;1913807;75;21092;-75
2023/08/20 03:23:11;;;;;;;8.25;3.40;;;24.90;99.90;;;;;;1913653;75;21127;-75
2023/08/20 03:26:02;;;;;;;9.35;4.00;;;24.90;99.90;;;;;;1913626;75;21170;-75
2023/08/20 03:28:53;;;;;;;8.23;3.42;;;24.90;99.90;;;;;;1913561;75;21109;-75
2023/08/20 03:31:45;;;;;;;5.05;3.72;;;24.80;99.90;;;;;;1913669;75;21116;-75
2023/08/20 03:34:37;;;;;;;8.25;3.65;;;24.80;99.90;;;;;;1913906;75;21120;-75
2023/08/20 03:37:28;;;;;;;10.00;4.28;;;24.90;99.90;;;;;;1913648;75;21057;-76
2023/08/20 03:40:20;;;;;;;6.30;3.90;;;24.80;99.90;;;;;;1913859;75;21116;-76
2023/08/20 03:43:11;;;;;;;6.87;4.20;;;24.70;99.90;;;;;;1913648;75;21096;-75
2023/08/20 03:46:04;;;;;;;7.85;3.83;;;24.70;99.90;;;;;;1913997;75;21053;-76
2023/08/20 03:48:56;;;;;;;7.28;3.45;;;24.70;99.90;;;;;;1913777;75;21089;-76
2023/08/20 03:51:48;;;;;;;6.95;3.58;;;24.70;99.90;;;;;;1913758;75;21091;-75
2023/08/20 03:54:41;;;;;;;6.05;3.70;;;24.60;99.90;;;;;;1913961;75;21134;-76
2023/08/20 03:57:32;;;;;;;11.20;3.55;;;24.60;99.90;;;;;;1913801;75;21058;-75
2023/08/20 04:00:24;;;;;;;8.48;4.55;;;24.50;99.90;;;;;;1913907;75;21489;-76
2023/08/20 04:03:19;;;;;;;8.08;3.83;;;24.50;99.90;;;;;;1913778;75;21108;-76
2023/08/20 04:06:09;;;;;;;8.48;3.67;;;24.40;99.90;;;;;;1913758;75;22085;-76
2023/08/20 04:09:00;;;;;;;10.65;4.25;;;24.40;99.90;;;;;;1913729;75;21101;-76
2023/08/20 04:11:51;;;;;;;6.05;3.30;;;24.40;99.90;;;;;;1913652;75;21133;-76
2023/08/20 04:14:43;;;;;;;6.15;3.45;;;24.40;99.90;;;;;;1906456;75;21101;-76
2023/08/20 04:17:34;;;;;;;6.15;3.52;;;24.40;99.90;;;;;;1916711;75;21155;-76
2023/08/20 04:20:26;;;;;;;8.70;3.62;;;24.40;99.90;;;;;;1916709;75;21104;-76
2023/08/20 04:23:18;;;;;;;14.58;4.03;;;24.40;99.90;;;;;;1904242;75;21989;-76
2023/08/20 04:26:10;;;;;;;9.40;4.40;;;24.40;99.90;;;;;;1916671;75;21158;-76
2023/08/20 04:29:02;;;;;;;8.90;3.70;;;24.40;99.90;;;;;;1916497;75;21105;-76
2023/08/20 04:31:54;;;;;;;5.75;3.50;;;24.40;99.90;;;;;;1916382;75;21058;-76
2023/08/20 04:34:46;;;;;;;5.67;3.70;;;24.50;99.90;;;;;;1903667;75;21093;-75
2023/08/20 04:37:37;;;;;;;6.75;3.67;;;24.50;99.90;;;;;;1904353;75;21135;-76
2023/08/20 04:40:29;;;;;;;6.40;3.50;;;24.50;99.90;;;;;;1904296;75;21124;-76
2023/08/20 04:43:21;;;;;;;8.98;4.25;;;24.50;99.90;;;;;;1916513;75;21135;-76
2023/08/20 04:46:13;;;;;;;6.08;4.10;;;24.40;99.90;;;;;;1916734;75;21109;-75
2023/08/20 04:49:05;;;;;;;9.50;3.58;;;24.30;99.90;;;;;;1916758;75;21541;-75
2023/08/20 04:51:57;;;;;;;12.55;4.15;;;24.30;99.90;;;;;;1916515;75;21094;-76
2023/08/20 04:54:49;;;;;;;8.90;4.12;;;24.20;99.90;;;;;;1916503;75;21733;-76
2023/08/20 04:57:41;;;;;;;11.03;3.90;;;24.30;99.90;;;;;;1916340;75;21150;-76
2023/08/20 05:00:34;;;;;;;10.45;3.85;;;24.20;99.90;;;;;;1916502;75;21123;-76
2023/08/20 05:03:28;;;;;;;12.43;4.53;;;24.30;99.90;;;;;;1903976;75;21163;-75
2023/08/20 05:06:19;;;;;;;8.80;3.87;;;24.30;99.90;;;;;;1903507;75;21183;-75
2023/08/20 05:09:10;;;;;;;10.08;4.87;;;24.40;99.90;;;;;;1903607;75;21109;-75
2023/08/20 05:12:02;;;;;;;12.58;3.60;;;24.40;99.90;;;;;;1904011;75;21101;-76
2023/08/20 05:14:54;;;;;;;9.28;3.95;;;24.30;99.90;;;;;;1904264;75;21140;-76
2023/08/20 05:17:45;;;;;;;7.62;3.67;;;24.40;99.90;;;;;;1904212;75;21364;-76
2023/08/20 05:20:36;;;;;;;8.10;3.98;;;24.30;99.90;;;;;;1904247;75;21130;-76
2023/08/20 05:23:28;;;;;;;9.78;4.33;;;24.20;99.90;;;;;;1904310;75;21131;-76
2023/08/20 05:26:20;;;;;;;6.72;4.00;;;24.20;99.90;;;;;;1904222;75;21114;-76
2023/08/20 05:29:11;;;;;;;6.83;3.77;;;24.20;99.90;;;;;;1904069;75;21084;-76
2023/08/20 05:32:03;;;;;;;7.50;3.30;;;24.20;99.90;;;;;;1904177;75;21239;-76
2023/08/20 05:34:55;;;;;;;9.33;3.95;;;24.10;99.90;;;;;;1916653;75;21100;-76
2023/08/20 05:37:47;;;;;;;10.08;3.58;;;24.10;99.90;;;;;;1904482;75;21109;-76
2023/08/20 05:40:39;;;;;;;7.67;3.70;;;24.20;99.90;;;;;;1904218;75;21124;-76
2023/08/20 05:43:30;;;;;;;6.72;3.65;;;24.10;99.90;;;;;;1904083;75;21088;-75
2023/08/20 05:46:22;;;;;;;7.83;3.77;;;24.20;99.90;;;;;;1904037;75;21121;-75
2023/08/20 05:49:15;;;;;;;8.20;3.67;;;24.20;99.90;;;;;;1904055;75;21055;-76
2023/08/20 05:52:07;;;;;;;8.30;3.83;;;24.20;99.90;;;;;;1916758;75;21096;-75
2023/08/20 05:54:59;;;;;;;6.80;3.98;;;24.30;99.90;;;;;;1916624;75;21146;-76
2023/08/20 05:57:50;;;;;;;9.05;3.85;;;24.40;99.90;;;;;;1916421;75;21155;-75
2023/08/20 06:00:42;;;;;;;8.78;3.90;;;24.40;99.90;;;;;;1916504;75;21097;-76
2023/08/20 06:03:35;;;;;;;8.23;4.03;;;24.50;99.90;;;;;;1916326;75;21101;-76
2023/08/20 06:06:27;;;;;;;8.50;4.15;;;24.50;99.90;;;;;;1915879;75;21154;-75
2023/08/20 06:09:18;;;;;;;6.62;3.95;;;24.50;99.90;;;;;;1903831;75;21169;-75
2023/08/20 06:12:10;;;;;;;5.80;3.70;;;24.60;99.90;;;;;;1916438;75;21101;-75
2023/08/20 06:15:01;;;;;;;6.67;3.47;;;24.60;99.90;;;;;;1903920;75;21162;-76
2023/08/20 06:17:53;;;;;;;6.15;3.55;;;24.70;99.90;;;;;;1901962;75;21189;-75
2023/08/20 06:20:44;;;;;;;8.95;3.80;;;24.70;99.90;;;;;;1902077;75;21164;-76
2023/08/20 06:23:36;;;;;;;7.97;4.10;;;24.70;99.90;;;;;;1902121;75;21101;-75
2023/08/20 06:26:29;;;;;;;7.90;3.75;;;24.80;99.90;;;;;;1902221;75;21074;-76
2023/08/20 06:29:22;;;;;;;8.10;3.75;;;24.80;99.90;;;;;;1901949;75;21562;-75
2023/08/20 06:32:13;;;;;;;8.65;4.10;;;24.80;99.90;;;;;;1901885;75;21184;-75
2023/08/20 06:35:06;;;;;;;10.15;4.08;;;24.80;99.90;;;;;;1901882;75;21095;-75
2023/08/20 06:37:58;;;;;;;11.03;4.22;;;24.80;99.90;;;;;;1902116;75;21125;-76
2023/08/20 06:40:49;;;;;;;9.25;3.95;;;24.90;99.90;;;;;;1902232;75;21149;-76
2023/08/20 06:43:41;;;;;;;9.15;4.30;;;25.00;99.90;;;;;;1901683;75;21180;-76
2023/08/20 06:46:32;;;;;;;7.92;3.65;;;25.00;99.90;;;;;;1902142;75;21598;-76
2023/08/20 06:49:24;;;;;;;8.05;4.12;;;25.10;99.90;;;;;;1901987;75;21768;-76
2023/08/20 06:52:26;;;;;;;8.23;4.12;;;25.10;99.90;;;;;;1902044;75;21136;-76
2023/08/20 06:55:17;;;;;;;7.30;4.08;;;25.10;99.90;;;;;;1754604;82;21177;-76
2023/08/20 06:58:08;;;;;;;9.15;4.87;;;25.20;99.90;;;;;;1754704;82;21172;-76
2023/08/20 07:01:06;;;;;;;8.23;4.20;;;25.20;99.90;;;;;;1784618;80;21169;-76
2023/08/20 07:03:53;;;;;;;8.18;3.90;;;25.30;99.90;;;;;;1784452;80;21144;-76
2023/08/20 07:06:44;;;;;;;7.08;3.95;;;25.40;99.90;;;;;;1788852;80;21093;-76
2023/08/20 07:09:35;;;;;;;8.15;4.35;;;25.50;99.90;;;;;;1792677;80;21148;-75
2023/08/20 07:12:26;;;;;;;9.03;4.40;;;25.50;99.90;;;;;;1768357;81;21140;-75
2023/08/20 07:15:18;;;;;;;7.25;4.58;;;25.60;99.90;;;;;;1768456;81;21171;-75
2023/08/20 07:18:12;;;;;;;8.55;3.83;;;25.60;99.90;;;;;;1768403;81;21631;-76
2023/08/20 07:21:02;;;;;;;9.00;4.37;;;25.70;99.90;;;;;;1768168;81;21136;-75
2023/08/20 07:23:54;;;;;;;10.43;4.22;;;25.70;99.90;;;;;;1768397;81;21181;-75
2023/08/20 07:26:45;;;;;;;9.88;4.33;;;25.80;99.90;;;;;;1768332;81;21132;-76
2023/08/20 07:29:36;;;;;;;8.95;3.80;;;25.90;99.90;;;;;;1740585;82;21647;-76
2023/08/20 07:32:28;;;;;;;10.63;4.25;;;25.90;99.90;;;;;;1740657;82;21205;-76
2023/08/20 07:35:20;;;;;;;7.03;4.47;;;26.00;99.90;;;;;;1740265;82;21184;-76
2023/08/20 07:38:11;;;;;;;7.65;3.62;;;26.10;99.90;;;;;;1740539;82;21190;-75
2023/08/20 07:41:02;;;;;;;7.17;3.77;;;26.20;99.90;;;;;;1740585;82;21204;-76
2023/08/20 07:43:53;;;;;;;8.40;3.42;;;26.20;99.90;;;;;;1740324;82;21138;-76
2023/08/20 07:46:45;;;;;;;8.18;3.75;;;26.20;99.90;;;;;;1740470;82;21209;-75
2023/08/20 07:49:36;;;;;;;8.73;3.58;;;26.30;99.90;;;;;;1740557;82;21668;-75
2023/08/20 07:52:27;;;;;;;14.93;3.87;;;26.40;99.90;;;;;;1740571;82;21130;-75
2023/08/20 07:55:19;;;;;;;9.80;3.90;;;26.50;99.90;;;;;;1756232;81;21170;-76
2023/08/20 07:58:10;;;;;;;6.22;3.90;;;26.60;99.90;;;;;;1783072;80;21221;-76
2023/08/20 08:01:02;;;;;;;10.90;4.50;;;26.70;99.90;;;;;;1782982;80;21126;-76
2023/08/20 08:03:54;;;;;;;8.78;3.80;;;26.80;99.90;;;;;;1782968;80;21204;-76
2023/08/20 08:06:45;;;;;;;7.12;3.45;;;26.80;99.90;;;;;;1782931;80;21189;-76
2023/08/20 08:09:37;;;;;;;5.92;3.52;;;26.90;99.90;;;;;;1782695;80;21143;-76
2023/08/20 08:12:28;;;;;;;7.62;3.58;;;26.90;99.90;;;;;;1782869;80;21150;-75
2023/08/20 08:15:20;;;;;;;8.03;3.70;;;27.00;99.90;;;;;;1783193;80;21379;-75
2023/08/20 08:18:11;;;;;;;8.18;4.62;;;27.10;99.90;;;;;;1782938;80;21114;-76
2023/08/20 08:21:03;;;;;;;9.68;3.62;;;27.20;99.90;;;;;;1782941;80;21712;-75
2023/08/20 08:23:55;;;;;;;7.25;3.55;;;27.30;99.90;;;;;;1782944;80;21232;-76
2023/08/20 08:26:46;;;;;;;7.72;4.40;;;27.30;99.90;;;;;;1782899;80;21246;-76
2023/08/20 08:29:38;;;;;;;8.68;3.72;;;27.40;99.90;;;;;;1782906;80;21249;-76
2023/08/20 08:32:29;;;;;;;10.43;4.22;;;27.50;99.90;;;;;;1782879;80;21138;-76
2023/08/20 08:35:22;;;;;;;7.00;3.80;;;27.60;99.90;;;;;;1782994;80;21135;-75
2023/08/20 08:38:14;;;;;;;7.40;3.77;;;27.70;99.90;;;;;;1782826;80;21213;-76
2023/08/20 08:41:07;;;;;;;13.62;4.08;;;27.70;99.90;;;;;;1783037;80;21222;-76
2023/08/20 08:43:58;;;;;;;8.08;3.92;;;27.90;99.90;;;;;;1782778;80;21153;-76
2023/08/20 08:46:52;;;;;;;8.18;4.05;;;28.00;99.90;;;;;;1782689;80;21223;-76
2023/08/20 08:49:44;;;;;;;5.65;3.92;;;28.10;99.90;;;;;;1782448;80;21150;-76
2023/08/20 08:52:37;;;;;;;8.23;4.08;;;28.20;99.90;;;;;;1782850;80;21887;-76
2023/08/20 08:55:29;;;;;;;6.25;3.92;;;28.30;99.90;;;;;;1785922;78;21101;-76
2023/08/20 08:58:22;;;;;;;7.97;4.12;;;28.30;99.90;;;;;;1790817;80;21225;-75
2023/08/20 09:01:18;;;;;;;10.70;4.58;;;28.40;99.90;;;;;;1791032;80;21930;-76
2023/08/20 09:04:12;;;;;;;8.23;4.70;;;28.50;99.90;;;;;;1791066;80;21127;-76
2023/08/20 09:07:07;;;;;;;6.58;4.00;;;28.50;99.90;;;;;;1791079;80;21128;-76
2023/08/20 09:10:03;;;;;;;8.00;4.03;;;28.60;99.90;;;;;;1791343;80;21144;-76
2023/08/20 09:12:57;;;;;;;5.90;3.92;;;28.70;99.90;;;;;;1790987;80;21255;-76
2023/08/20 09:15:57;;;;;;;11.75;4.30;;;28.80;99.90;;;;;;1791051;80;21568;-76
2023/08/20 09:18:51;;;;;;;12.00;4.45;;;28.90;99.90;;;;;;1788815;80;21687;-76
2023/08/20 09:21:48;;;;;;;;;;;29.00;99.60;;;;;;1793590;80;21218;-76
2023/08/20 09:24:47;;;;;;;11.83;5.28;;;29.10;99.50;;;;;;1791126;80;20229;-75
2023/08/20 09:27:43;;;;;;;8.83;4.58;;;29.20;99.30;;;;;;1791100;80;21214;-76
2023/08/20 09:30:41;;;;;;;8.83;4.40;;;29.30;98.90;;;;;;1791228;80;21201;-76
2023/08/20 09:33:34;;;;;;;7.92;4.40;;;29.30;98.30;;;;;;1791182;80;21169;-75
2023/08/20 09:36:37;;;;;;;8.65;4.10;;;29.40;98.10;;;;;;1783126;80;21216;-76
2023/08/20 09:39:30;;;;;;;9.13;4.03;;;29.40;97.80;;;;;;1761552;81;21095;-76
2023/08/20 09:42:28;;;;;;;8.93;4.08;;;29.50;96.70;;;;;;1766425;80;21105;-76
2023/08/20 09:45:24;;;;;;;10.15;4.12;;;29.50;97.00;;;;;;1768130;80;21128;-76
2023/08/20 09:48:20;;;;;;;9.55;4.00;;;29.60;96.00;;;;;;1771978;80;21192;-76
2023/08/20 09:51:20;;;;;;;8.80;4.17;;;29.70;95.60;;;;;;1790132;80;21117;-76
2023/08/20 09:54:16;;;;;;;6.95;3.62;;;29.80;95.20;;;;;;1789898;80;21141;-76
2023/08/20 09:57:08;;;;;;;;;;;30.00;94.80;;;;;;1774267;80;21671;-76
2023/08/20 10:00:05;;;;;;;10.05;4.17;;;30.10;93.80;;;;;;1764187;81;20200;-76
2023/08/20 10:03:02;;;;;;;6.35;4.10;;;30.10;93.50;;;;;;1758457;80;21616;-76
2023/08/20 10:06:06;;;;;;;8.55;3.60;;;30.20;93.00;;;;;;1738356;81;21089;-76
2023/08/20 10:09:00;;;;;;;9.00;3.95;;;30.40;91.30;;;;;;1763880;81;21169;-76
2023/08/20 10:11:53;;;;;;;9.70;4.12;;;30.40;91.00;;;;;;1763828;81;21176;-76
2023/08/20 10:14:47;;;;;;;8.08;4.05;;;30.50;90.80;;;;;;1763831;81;21144;-76
2023/08/20 10:17:43;;;;;;;7.30;4.35;;;30.40;90.80;;;;;;1763673;81;21239;-76
2023/08/20 10:20:38;;;;;;;7.72;4.00;;;30.50;90.90;;;;;;1763793;81;21267;-76
2023/08/20 10:23:40;;;;;;;7.75;4.15;;;30.60;90.80;;;;;;1740433;81;21176;-76
2023/08/20 10:27:09;;;;;;;5.08;3.72;;;30.70;90.90;;;;;;1763720;81;21180;-76
2023/08/20 10:30:05;;;;;;;8.15;3.75;;;30.80;91.60;;;;;;1757752;81;21256;-75
2023/08/20 10:33:03;;;;;;;9.05;3.77;;;30.90;90.10;;;;;;1763764;81;21192;-75
2023/08/20 10:35:59;;;;;;;8.08;3.67;;;31.00;90.00;;;;;;1763782;81;21160;-76
2023/08/20 10:38:55;;;;;;;9.63;4.20;;;31.00;90.30;;;;;;1763885;81;21093;-76
2023/08/20 10:41:46;;;;;;;10.53;4.22;;;31.10;90.00;;;;;;1763752;81;21128;-76
2023/08/20 10:45:03;;;;;;;8.85;4.00;;;31.20;89.10;;;;;;1763895;81;21118;-76
2023/08/20 10:47:55;;;;;;;8.03;3.90;;;31.30;89.40;;;;;;1763923;81;21573;-76
2023/08/20 10:50:52;;;;;;;5.80;3.75;;;31.40;88.80;;;;;;1763806;81;21101;-76
2023/08/20 10:53:51;;;;;;;7.28;4.03;;;31.50;88.10;;;;;;1763828;81;21698;-76
2023/08/20 10:56:48;;;;;;;8.63;4.20;;;31.50;87.20;;;;;;1767092;80;21625;-75
2023/08/20 10:59:41;;;;;;;;;;;31.60;86.80;;;;;;1786543;80;21379;-76
2023/08/20 11:02:37;;;;;;;8.15;3.77;;;31.60;87.10;;;;;;1783701;80;20581;-76
2023/08/20 11:05:30;;;;;;;9.05;3.58;;;31.70;86.00;;;;;;1781831;80;21593;-76
2023/08/20 11:08:24;;;;;;;8.88;3.58;;;31.80;85.40;;;;;;1756687;81;21152;-76
2023/08/20 11:11:18;;;;;;;10.03;4.30;;;32.00;85.10;;;;;;1757350;82;21238;-76
2023/08/20 11:14:16;;;;;;;7.33;4.15;;;32.10;84.60;;;;;;1757249;82;21124;-76
2023/08/20 11:17:13;;;;;;;6.78;4.10;;;32.20;84.00;;;;;;1752930;82;21187;-76
2023/08/20 11:20:11;;;;;;;8.65;3.72;;;32.20;83.40;;;;;;1753260;82;21099;-76
2023/08/20 11:23:04;;;;;;;11.83;3.62;;;32.30;83.30;;;;;;1752956;82;21222;-76
2023/08/20 11:25:57;;;;;;;7.92;4.03;;;32.40;83.00;;;;;;1753394;82;21154;-76
2023/08/20 11:28:49;;;;;;;8.75;3.37;;;32.50;82.50;;;;;;1752880;82;21166;-76
2023/08/20 11:31:41;;;;;;;8.88;3.90;;;32.50;82.40;;;;;;1757758;82;21207;-76
2023/08/20 11:34:37;;;;;;;11.75;4.20;;;32.60;81.00;;;;;;1757663;82;21637;-76
2023/08/20 11:37:30;;;;;;;8.23;4.40;;;32.70;80.70;;;;;;1757714;82;21085;-76
2023/08/20 11:40:23;;;;;;;6.50;3.75;;;32.80;80.70;;;;;;1753239;82;21142;-76
2023/08/20 11:43:16;;;;;;;9.45;3.83;;;33.00;80.40;;;;;;1757521;82;21128;-76
2023/08/20 11:46:15;;;;;;;11.15;3.75;;;33.10;79.90;;;;;;1757742;82;21188;-76
2023/08/20 11:49:12;;;;;;;10.53;4.12;;;33.20;79.60;;;;;;1738055;82;21081;-76
2023/08/20 11:52:07;;;;;;;6.35;3.80;;;33.40;78.60;;;;;;1753073;82;21146;-77
2023/08/20 11:55:04;;;;;;;7.33;3.77;;;33.40;77.70;;;;;;1752937;82;21253;-76
2023/08/20 11:57:59;;;;;;;11.12;3.80;;;33.60;77.30;;;;;;1752590;82;21666;-76
2023/08/20 12:00:52;;;;;;;10.03;3.85;;;33.60;77.50;;;;;;1752616;82;21228;-75
2023/08/20 12:03:46;;;;;;;8.05;3.37;;;33.70;77.20;;;;;;1746859;82;21258;-76
2023/08/20 12:06:42;;;;;;;11.28;3.65;;;33.80;76.70;;;;;;1752831;82;21166;-76
2023/08/20 12:09:34;;;;;;;5.12;3.40;;;33.80;77.20;;;;;;1752918;82;21208;-76
2023/08/20 12:12:29;;;;;;;10.63;4.03;;;33.90;78.40;;;;;;1753038;82;21248;-76
2023/08/20 12:15:23;;;;;;;6.87;3.40;;;33.90;78.10;;;;;;1753069;82;21187;-76
2023/08/20 12:18:19;;;;;;;5.53;3.55;;;34.00;78.00;;;;;;1740344;82;21651;-76
2023/08/20 12:21:11;;;;;;;8.98;4.25;;;34.20;77.30;;;;;;1753156;82;21154;-76
2023/08/20 12:24:07;;;;;;;8.28;3.40;;;34.20;76.00;;;;;;1753226;82;21589;-76
2023/08/20 12:26:59;;;;;;;7.33;3.50;;;34.40;77.10;;;;;;1752965;82;21107;-77
2023/08/20 12:29:50;;;;;;;6.42;3.60;;;34.40;77.60;;;;;;1752976;82;21238;-77
2023/08/20 12:32:42;;;;;;;8.40;3.37;;;34.50;77.30;;;;;;1753028;82;21200;-77
2023/08/20 12:35:33;;;;;;;11.85;3.47;;;34.50;76.90;;;;;;1753186;82;21618;-76
2023/08/20 12:38:24;;;;;;;7.53;3.55;;;34.60;77.00;;;;;;1753049;82;21205;-76
2023/08/20 12:41:16;;;;;;;7.45;3.45;;;34.70;76.90;;;;;;1753077;82;21209;-76
2023/08/20 12:44:08;;;;;;;8.40;3.22;;;34.80;77.90;;;;;;1752974;82;21122;-76
2023/08/20 12:47:00;;;;;;;8.25;3.50;;;34.90;77.90;;;;;;1752926;82;21146;-76
2023/08/20 12:49:51;;;;;;;5.80;3.47;;;34.90;77.40;;;;;;1753178;82;21693;-76
2023/08/20 12:52:43;;;;;;;6.55;3.50;;;35.00;78.30;;;;;;1753063;82;21493;-76
2023/08/20 12:55:34;;;;;;;6.45;3.17;;;35.00;78.40;;;;;;1752904;82;21191;-76
2023/08/20 12:58:26;;;;;;;10.45;3.58;;;35.10;78.60;;;;;;1752810;81;21216;-76
2023/08/20 13:01:19;;;;;;;6.53;3.62;;;35.40;78.30;;;;;;1753029;80;21158;-76
2023/08/20 13:04:13;;;;;;;8.73;3.92;;;35.40;77.70;;;;;;1753215;82;21641;-76
2023/08/20 13:07:05;;;;;;;5.30;3.20;;;35.40;77.70;;;;;;1752869;82;21094;-76
2023/08/20 13:09:57;;;;;;;5.67;3.00;;;35.40;77.60;;;;;;1753002;82;21617;-76
2023/08/20 13:12:53;;;;;;;6.33;3.72;;;35.50;76.90;;;;;;1753129;82;21170;-76
2023/08/20 13:15:48;;;;;;;10.82;3.35;;;35.60;77.20;;;;;;1753333;82;21142;-76
2023/08/20 13:18:42;;;;;;;12.15;3.33;;;35.60;76.50;;;;;;1753168;82;21242;-76
2023/08/20 13:21:33;;;;;;;8.55;3.40;;;35.70;76.60;;;;;;1753341;82;21196;-76
2023/08/20 13:24:25;;;;;;;7.75;3.27;;;35.70;76.40;;;;;;1753053;82;21166;-77
2023/08/20 13:27:17;;;;;;;6.08;3.40;;;35.80;76.30;;;;;;1752854;82;21154;-77
2023/08/20 13:30:10;;;;;;;7.45;3.08;;;35.80;75.90;;;;;;1752596;82;21217;-76
2023/08/20 13:33:01;;;;;;;4.90;3.27;;;35.70;75.00;;;;;;1752740;82;21142;-76
2023/08/20 13:35:53;;;;;;;7.03;3.33;;;35.70;75.20;;;;;;1752855;82;21410;-76
2023/08/20 13:38:45;;;;;;;7.60;3.12;;;35.90;74.80;;;;;;1752971;82;21111;-76
2023/08/20 13:41:36;;;;;;;5.85;3.15;;;35.90;74.00;;;;;;1752865;82;21154;-76
2023/08/20 13:44:27;;;;;;;6.17;2.83;;;36.00;72.90;;;;;;1752946;82;21161;-77
2023/08/20 13:47:18;;;;;;;4.12;2.90;;;36.10;73.10;;;;;;1753044;82;21241;-77
2023/08/20 13:50:10;;;;;;;6.03;3.10;;;36.00;72.80;;;;;;1753039;82;21665;-76
2023/08/20 13:53:02;;;;;;;6.30;3.20;;;36.20;72.60;;;;;;1753082;82;21225;-77
2023/08/20 13:55:55;;;;;;;3.87;2.52;;;36.10;72.40;;;;;;1753092;82;21158;-77
2023/08/20 13:58:46;;;;;;;4.85;2.83;;;36.20;72.30;;;;;;1752883;82;21574;-77
2023/08/20 14:01:37;;;;;;;9.15;3.35;;;36.30;72.20;;;;;;1753084;82;21389;-76
2023/08/20 14:04:29;;;;;;;4.97;2.90;;;36.40;71.70;;;;;;1753056;82;21228;-76
2023/08/20 14:07:20;;;;;;;7.62;2.70;;;36.60;70.80;;;;;;1753046;82;21202;-78
2023/08/20 14:10:12;;;;;;;8.60;2.98;;;37.20;70.10;;;;;;1753153;82;21158;-76
2023/08/20 14:13:04;;;;;;;8.08;3.25;;;37.60;68.60;;;;;;1753013;82;21134;-76
2023/08/20 14:15:55;;;;;;;9.35;2.90;;;37.90;67.40;;;;;;1752894;82;21200;-76
2023/08/20 14:18:47;;;;;;;6.78;3.25;;;38.10;66.00;;;;;;1753112;82;21281;-77
2023/08/20 14:21:38;;;;;;;6.97;2.80;;;38.30;65.80;;;;;;1752948;82;21146;-77
2023/08/20 14:24:30;;;;;;;6.95;2.90;;;38.40;65.10;;;;;;1753033;82;21107;-78
2023/08/20 14:27:22;;;;;;;5.42;3.05;;;38.70;63.90;;;;;;1752636;82;21199;-76
2023/08/20 14:30:14;;;;;;;5.72;2.95;;;39.00;63.40;;;;;;1752426;82;21170;-77
2023/08/20 14:33:06;;;;;;;6.40;2.70;;;39.10;61.90;;;;;;1752559;82;21220;-78
2023/08/20 14:35:58;;;;;;;7.10;3.10;;;38.80;62.50;;;;;;1752664;82;21146;-78
2023/08/20 14:38:49;;;;;;;5.35;2.85;;;39.00;62.10;;;;;;1752994;82;21167;-78
2023/08/20 14:41:40;;;;;;;7.17;3.05;;;39.20;60.60;;;;;;1752982;80;21103;-78
2023/08/20 14:44:31;;;;;;;4.80;2.65;;;39.00;60.50;;;;;;1753229;82;21198;-76
2023/08/20 14:47:23;;;;;;;8.18;2.80;;;39.30;59.80;;;;;;1753112;82;21216;-76
2023/08/20 14:50:14;;;;;;;5.58;2.87;;;39.50;59.10;;;;;;1753025;82;21208;-77
2023/08/20 14:53:06;;;;;;;7.78;2.70;;;39.40;59.00;;;;;;1753226;82;21178;-76
2023/08/20 14:55:58;;;;;;;6.65;2.70;;;39.60;57.90;;;;;;1753224;82;21187;-76
2023/08/20 14:58:50;;;;;;;6.55;2.67;;;39.50;57.40;;;;;;1753006;82;21172;-77